Terminal Aerodrome Forecast
Issued by NWS Twin Cities, MN

Home | Current Version | Previous Version | Text Only | Print | Product List | Glossary Off
Versions: 1 2 3 4 5 6 7 8 9 10 11 12

000
FTUS43 KMPX 252320
TAFSTC
TAF
KSTC 252320Z 2600/2624 15009KT P6SM VCSH BKN050
     FM261000 15005KT P6SM BKN060
     FM261800 19007KT P6SM BKN110
     FM262100 23009KT P6SM SCT150=

USA.gov is the U.S. government's official web portal to all federal, state and local government web resources and services.